sensor_id;sensor_type;location;lat;lon;timestamp;temperature;humidity
9486;DHT22;4781;48.776;9.200;2023-03-01T00:04:36;-0.80;99.90
9486;DHT22;4781;48.776;9.200;2023-03-01T00:07:04;-0.90;99.90
9486;DHT22;4781;48.776;9.200;2023-03-01T00:09:33;-0.90;99.90
9486;DHT22;4781;48.776;9.200;2023-03-01T00:12:03;-0.90;99.90
9486;DHT22;4781;48.776;9.200;2023-03-01T00:14:32;-0.90;99.90
9486;DHT22;4781;48.776;9.200;2023-03-01T00:17:01;-0.90;99.90
9486;DHT22;4781;48.776;9.200;2023-03-01T00:19:29;-1.00;99.90
9486;DHT22;4781;48.776;9.200;2023-03-01T00:21:58;-1.00;99.90
9486;DHT22;4781;48.776;9.200;2023-03-01T00:24:27;-1.00;99.90
9486;DHT22;4781;48.776;9.200;2023-03-01T00:26:56;-1.00;99.90
9486;DHT22;4781;48.776;9.200;2023-03-01T00:29:25;-1.00;99.90
9486;DHT22;4781;48.776;9.200;2023-03-01T00:31:53;-1.00;99.90
9486;DHT22;4781;48.776;9.200;2023-03-01T00:34:22;-1.10;99.90
9486;DHT22;4781;48.776;9.200;2023-03-01T00:36:50;-1.00;99.90
9486;DHT22;4781;48.776;9.200;2023-03-01T00:39:19;-1.10;99.90
9486;DHT22;4781;48.776;9.200;2023-03-01T00:41:47;-1.10;99.90
9486;DHT22;4781;48.776;9.200;2023-03-01T00:44:16;-1.10;99.90
9486;DHT22;4781;48.776;9.200;2023-03-01T00:46:44;-1.10;99.90
9486;DHT22;4781;48.776;9.200;2023-03-01T00:49:13;-1.20;99.90
9486;DHT22;4781;48.776;9.200;2023-03-01T00:51:42;-1.20;99.90
9486;DHT22;4781;48.776;9.200;2023-03-01T00:54:10;-1.10;99.90
9486;DHT22;4781;48.776;9.200;2023-03-01T00:56:39;-1.20;99.90
9486;DHT22;4781;48.776;9.200;2023-03-01T00:59:07;-1.20;99.90
9486;DHT22;4781;48.776;9.200;2023-03-01T01:01:35;-1.20;99.90
9486;DHT22;4781;48.776;9.200;2023-03-01T01:04:06;-1.10;99.90
9486;DHT22;4781;48.776;9.200;2023-03-01T01:06:39;-1.20;99.90
9486;DHT22;4781;48.776;9.200;2023-03-01T01:09:16;-1.20;99.90
9486;DHT22;4781;48.776;9.200;2023-03-01T01:11:47;-1.20;99.90
9486;DHT22;4781;48.776;9.200;2023-03-01T01:14:17;-1.20;99.90
9486;DHT22;4781;48.776;9.200;2023-03-01T01:16:46;-1.30;99.90
9486;DHT22;4781;48.776;9.200;2023-03-01T01:19:15;-1.30;99.90
9486;DHT22;4781;48.776;9.200;2023-03-01T01:21:43;-1.30;99.90
9486;DHT22;4781;48.776;9.200;2023-03-01T01:24:15;-1.30;99.90
9486;DHT22;4781;48.776;9.200;2023-03-01T01:26:43;-1.30;99.90
9486;DHT22;4781;48.776;9.200;2023-03-01T01:29:12;-1.30;99.90
9486;DHT22;4781;48.776;9.200;2023-03-01T01:31:42;-1.30;99.90
9486;DHT22;4781;48.776;9.200;2023-03-01T01:34:21;-1.30;99.90
9486;DHT22;4781;48.776;9.200;2023-03-01T01:36:50;-1.30;99.90
9486;DHT22;4781;48.776;9.200;2023-03-01T01:39:24;-1.30;99.90
9486;DHT22;4781;48.776;9.200;2023-03-01T01:41:55;-1.30;99.90
9486;DHT22;4781;48.776;9.200;2023-03-01T01:44:28;-1.40;99.90
9486;DHT22;4781;48.776;9.200;2023-03-01T01:47:02;-1.40;99.90
9486;DHT22;4781;48.776;9.200;2023-03-01T01:49:41;-1.40;99.90
9486;DHT22;4781;48.776;9.200;2023-03-01T01:54:55;-1.40;99.90
9486;DHT22;4781;48.776;9.200;2023-03-01T01:57:44;-1.40;99.90
9486;DHT22;4781;48.776;9.200;2023-03-01T02:00:17;-1.40;99.90
9486;DHT22;4781;48.776;9.200;2023-03-01T02:02:56;-1.30;99.90
9486;DHT22;4781;48.776;9.200;2023-03-01T02:06:02;-1.30;99.90
9486;DHT22;4781;48.776;9.200;2023-03-01T02:08:36;-1.30;99.90
9486;DHT22;4781;48.776;9.200;2023-03-01T02:11:06;-1.30;99.90
9486;DHT22;4781;48.776;9.200;2023-03-01T02:13:36;-1.20;99.90
9486;DHT22;4781;48.776;9.200;2023-03-01T02:16:10;-1.20;99.90
9486;DHT22;4781;48.776;9.200;2023-03-01T02:18:39;-1.20;99.90
9486;DHT22;4781;48.776;9.200;2023-03-01T02:24:15;-1.10;99.90
9486;DHT22;4781;48.776;9.200;2023-03-01T02:26:50;-1.10;99.90
9486;DHT22;4781;48.776;9.200;2023-03-01T02:29:14;-1.10;99.90
9486;DHT22;4781;48.776;9.200;2023-03-01T02:31:43;-1.10;99.90
9486;DHT22;4781;48.776;9.200;2023-03-01T02:34:17;-1.00;99.90
9486;DHT22;4781;48.776;9.200;2023-03-01T02:36:56;-1.00;99.90
9486;DHT22;4781;48.776;9.200;2023-03-01T02:39:37;-1.00;99.90
9486;DHT22;4781;48.776;9.200;2023-03-01T02:42:03;-1.00;99.90
9486;DHT22;4781;48.776;9.200;2023-03-01T02:44:32;-0.90;99.90
9486;DHT22;4781;48.776;9.200;2023-03-01T02:47:02;-0.90;99.90
9486;DHT22;4781;48.776;9.200;2023-03-01T02:49:33;-0.90;99.90
9486;DHT22;4781;48.776;9.200;2023-03-01T02:57:39;-0.90;99.90
9486;DHT22;4781;48.776;9.200;2023-03-01T03:00:13;-0.80;99.90
9486;DHT22;4781;48.776;9.200;2023-03-01T03:02:47;-0.80;99.90
9486;DHT22;4781;48.776;9.200;2023-03-01T03:05:24;-0.80;99.90
9486;DHT22;4781;48.776;9.200;2023-03-01T03:07:50;-0.80;99.90
9486;DHT22;4781;48.776;9.200;2023-03-01T03:10:30;-0.70;99.90
9486;DHT22;4781;48.776;9.200;2023-03-01T03:13:02;-0.70;99.90
9486;DHT22;4781;48.776;9.200;2023-03-01T03:15:32;-0.70;99.90
9486;DHT22;4781;48.776;9.200;2023-03-01T03:18:07;-0.70;99.90
9486;DHT22;4781;48.776;9.200;2023-03-01T03:20:38;-0.70;99.90
9486;DHT22;4781;48.776;9.200;2023-03-01T03:23:08;-0.70;99.90
9486;DHT22;4781;48.776;9.200;2023-03-01T03:25:36;-0.60;99.90
9486;DHT22;4781;48.776;9.200;2023-03-01T03:28:06;-0.60;99.90
9486;DHT22;4781;48.776;9.200;2023-03-01T03:30:39;-0.70;99.90
9486;DHT22;4781;48.776;9.200;2023-03-01T03:33:11;-0.60;99.90
9486;DHT22;4781;48.776;9.200;2023-03-01T03:35:43;-0.60;99.90
9486;DHT22;4781;48.776;9.200;2023-03-01T03:38:15;-0.50;99.90
9486;DHT22;4781;48.776;9.200;2023-03-01T03:40:50;-0.50;99.90
9486;DHT22;4781;48.776;9.200;2023-03-01T03:43:22;-0.50;99.90
9486;DHT22;4781;48.776;9.200;2023-03-01T03:45:52;-0.50;99.90
9486;DHT22;4781;48.776;9.200;2023-03-01T03:48:21;-0.50;99.90
9486;DHT22;4781;48.776;9.200;2023-03-01T03:50:52;-0.40;99.90
9486;DHT22;4781;48.776;9.200;2023-03-01T03:53:23;-0.40;99.90
9486;DHT22;4781;48.776;9.200;2023-03-01T03:58:43;-0.40;99.90
9486;DHT22;4781;48.776;9.200;2023-03-01T04:01:11;-0.40;99.90
9486;DHT22;4781;48.776;9.200;2023-03-01T04:03:39;-0.30;99.90
9486;DHT22;4781;48.776;9.200;2023-03-01T04:06:09;-0.30;99.90
9486;DHT22;4781;48.776;9.200;2023-03-01T04:08:38;-0.30;99.90
9486;DHT22;4781;48.776;9.200;2023-03-01T04:11:07;-0.30;99.90
9486;DHT22;4781;48.776;9.200;2023-03-01T04:13:40;-0.30;99.90
9486;DHT22;4781;48.776;9.200;2023-03-01T04:16:08;-0.20;99.90
9486;DHT22;4781;48.776;9.200;2023-03-01T04:18:36;-0.20;99.90
9486;DHT22;4781;48.776;9.200;2023-03-01T04:21:05;-0.20;99.90
9486;DHT22;4781;48.776;9.200;2023-03-01T04:23:33;-0.20;99.90
9486;DHT22;4781;48.776;9.200;2023-03-01T04:26:02;-0.20;99.90
9486;DHT22;4781;48.776;9.200;2023-03-01T04:28:42;-0.20;99.90
9486;DHT22;4781;48.776;9.200;2023-03-01T04:31:10;-0.20;99.90
9486;DHT22;4781;48.776;9.200;2023-03-01T04:33:50;-0.10;99.90
9486;DHT22;4781;48.776;9.200;2023-03-01T04:36:22;-0.10;99.90
9486;DHT22;4781;48.776;9.200;2023-03-01T04:38:51;-0.10;99.90
9486;DHT22;4781;48.776;9.200;2023-03-01T04:41:22;-0.10;99.90
9486;DHT22;4781;48.776;9.200;2023-03-01T04:43:51;-0.10;99.90
9486;DHT22;4781;48.776;9.200;2023-03-01T04:46:20;0.00;99.90
9486;DHT22;4781;48.776;9.200;2023-03-01T04:48:49;0.00;99.90
9486;DHT22;4781;48.776;9.200;2023-03-01T04:51:17;0.00;99.90
9486;DHT22;4781;48.776;9.200;2023-03-01T04:53:47;0.00;99.90
9486;DHT22;4781;48.776;9.200;2023-03-01T04:56:16;0.00;99.90
9486;DHT22;4781;48.776;9.200;2023-03-01T04:58:45;0.10;99.90
9486;DHT22;4781;48.776;9.200;2023-03-01T05:01:16;0.10;99.90
9486;DHT22;4781;48.776;9.200;2023-03-01T05:03:48;0.00;99.90
9486;DHT22;4781;48.776;9.200;2023-03-01T05:06:19;0.10;99.90
9486;DHT22;4781;48.776;9.200;2023-03-01T05:08:48;0.10;99.90
9486;DHT22;4781;48.776;9.200;2023-03-01T05:11:16;0.10;99.90
9486;DHT22;4781;48.776;9.200;2023-03-01T05:13:44;0.10;99.90
9486;DHT22;4781;48.776;9.200;2023-03-01T05:16:13;0.10;99.90
9486;DHT22;4781;48.776;9.200;2023-03-01T05:18:43;0.20;99.90
9486;DHT22;4781;48.776;9.200;2023-03-01T05:21:14;0.20;99.90
9486;DHT22;4781;48.776;9.200;2023-03-01T05:23:45;0.20;99.90
9486;DHT22;4781;48.776;9.200;2023-03-01T05:26:15;0.20;99.90
9486;DHT22;4781;48.776;9.200;2023-03-01T05:28:48;0.20;99.90
9486;DHT22;4781;48.776;9.200;2023-03-01T05:31:16;0.20;99.90
9486;DHT22;4781;48.776;9.200;2023-03-01T05:33:45;0.20;99.90
9486;DHT22;4781;48.776;9.200;2023-03-01T05:36:13;0.30;99.90
9486;DHT22;4781;48.776;9.200;2023-03-01T05:38:41;0.30;99.90
9486;DHT22;4781;48.776;9.200;2023-03-01T05:41:17;0.30;99.90
9486;DHT22;4781;48.776;9.200;2023-03-01T05:43:43;0.30;99.90
9486;DHT22;4781;48.776;9.200;2023-03-01T05:46:11;0.30;99.90
9486;DHT22;4781;48.776;9.200;2023-03-01T05:48:41;0.30;99.90
9486;DHT22;4781;48.776;9.200;2023-03-01T05:51:10;0.30;99.90
9486;DHT22;4781;48.776;9.200;2023-03-01T05:53:38;0.30;99.90
9486;DHT22;4781;48.776;9.200;2023-03-01T05:56:07;0.30;99.90
9486;DHT22;4781;48.776;9.200;2023-03-01T05:58:36;0.30;99.90
9486;DHT22;4781;48.776;9.200;2023-03-01T06:01:05;0.30;99.90
9486;DHT22;4781;48.776;9.200;2023-03-01T06:03:33;0.30;99.90
9486;DHT22;4781;48.776;9.200;2023-03-01T06:06:01;0.30;99.90
9486;DHT22;4781;48.776;9.200;2023-03-01T06:08:30;0.30;99.90
9486;DHT22;4781;48.776;9.200;2023-03-01T06:10:58;0.30;99.90
9486;DHT22;4781;48.776;9.200;2023-03-01T06:13:27;0.30;99.90
9486;DHT22;4781;48.776;9.200;2023-03-01T06:15:56;0.30;99.90
9486;DHT22;4781;48.776;9.200;2023-03-01T06:18:24;0.30;99.90
9486;DHT22;4781;48.776;9.200;2023-03-01T06:20:54;0.40;99.90
9486;DHT22;4781;48.776;9.200;2023-03-01T06:23:23;0.40;99.90
9486;DHT22;4781;48.776;9.200;2023-03-01T06:25:53;0.40;99.90
9486;DHT22;4781;48.776;9.200;2023-03-01T06:28:22;0.30;99.90
9486;DHT22;4781;48.776;9.200;2023-03-01T06:30:50;0.30;99.90
9486;DHT22;4781;48.776;9.200;2023-03-01T06:33:19;0.30;99.90
9486;DHT22;4781;48.776;9.200;2023-03-01T06:35:50;0.40;99.90
9486;DHT22;4781;48.776;9.200;2023-03-01T06:38:18;0.40;99.90
9486;DHT22;4781;48.776;9.200;2023-03-01T06:40:51;0.40;99.90
9486;DHT22;4781;48.776;9.200;2023-03-01T06:43:22;0.40;99.90
9486;DHT22;4781;48.776;9.200;2023-03-01T06:45:51;0.40;99.90
9486;DHT22;4781;48.776;9.200;2023-03-01T06:48:19;0.40;99.90
9486;DHT22;4781;48.776;9.200;2023-03-01T06:50:47;0.40;99.90
9486;DHT22;4781;48.776;9.200;2023-03-01T06:53:16;0.40;99.90
9486;DHT22;4781;48.776;9.200;2023-03-01T06:55:44;0.40;99.90
9486;DHT22;4781;48.776;9.200;2023-03-01T06:58:13;0.40;99.90
9486;DHT22;4781;48.776;9.200;2023-03-01T07:00:41;0.40;99.90
9486;DHT22;4781;48.776;9.200;2023-03-01T07:03:10;0.40;99.90
9486;DHT22;4781;48.776;9.200;2023-03-01T07:05:39;0.50;99.90
9486;DHT22;4781;48.776;9.200;2023-03-01T07:08:07;0.50;99.90
9486;DHT22;4781;48.776;9.200;2023-03-01T07:10:35;0.50;99.90
9486;DHT22;4781;48.776;9.200;2023-03-01T07:13:04;0.50;99.90
9486;DHT22;4781;48.776;9.200;2023-03-01T07:15:33;0.50;99.90
9486;DHT22;4781;48.776;9.200;2023-03-01T07:18:01;0.50;99.90
9486;DHT22;4781;48.776;9.200;2023-03-01T07:20:30;0.40;99.90
9486;DHT22;4781;48.776;9.200;2023-03-01T07:22:58;0.50;99.90
9486;DHT22;4781;48.776;9.200;2023-03-01T07:25:27;0.50;99.90
9486;DHT22;4781;48.776;9.200;2023-03-01T07:27:55;0.50;99.90
9486;DHT22;4781;48.776;9.200;2023-03-01T07:30:25;0.60;99.90
9486;DHT22;4781;48.776;9.200;2023-03-01T07:32:55;0.50;99.90
9486;DHT22;4781;48.776;9.200;2023-03-01T07:35:35;0.60;99.90
9486;DHT22;4781;48.776;9.200;2023-03-01T07:37:59;0.60;99.90
9486;DHT22;4781;48.776;9.200;2023-03-01T07:40:28;0.60;99.90
9486;DHT22;4781;48.776;9.200;2023-03-01T07:42:57;0.70;99.90
9486;DHT22;4781;48.776;9.200;2023-03-01T07:45:28;0.70;99.90
9486;DHT22;4781;48.776;9.200;2023-03-01T07:47:56;0.80;99.90
9486;DHT22;4781;48.776;9.200;2023-03-01T07:50:24;0.90;99.90
9486;DHT22;4781;48.776;9.200;2023-03-01T07:52:53;1.00;99.90
9486;DHT22;4781;48.776;9.200;2023-03-01T07:55:21;1.00;99.90
9486;DHT22;4781;48.776;9.200;2023-03-01T07:57:49;1.10;99.90
9486;DHT22;4781;48.776;9.200;2023-03-01T08:00:18;1.20;99.90
9486;DHT22;4781;48.776;9.200;2023-03-01T08:02:47;1.20;99.90
9486;DHT22;4781;48.776;9.200;2023-03-01T08:05:15;1.30;99.90
9486;DHT22;4781;48.776;9.200;2023-03-01T08:07:44;1.40;99.90
9486;DHT22;4781;48.776;9.200;2023-03-01T08:10:12;1.40;99.90
9486;DHT22;4781;48.776;9.200;2023-03-01T08:12:40;1.40;99.90
9486;DHT22;4781;48.776;9.200;2023-03-01T08:15:10;1.50;99.90
9486;DHT22;4781;48.776;9.200;2023-03-01T08:17:38;1.60;99.90
9486;DHT22;4781;48.776;9.200;2023-03-01T08:20:07;1.80;99.90
9486;DHT22;4781;48.776;9.200;2023-03-01T08:22:38;1.90;99.90
9486;DHT22;4781;48.776;9.200;2023-03-01T08:25:06;1.90;99.90
9486;DHT22;4781;48.776;9.200;2023-03-01T08:27:37;2.10;99.90
9486;DHT22;4781;48.776;9.200;2023-03-01T08:30:06;2.30;99.90
9486;DHT22;4781;48.776;9.200;2023-03-01T08:32:43;2.30;99.90
9486;DHT22;4781;48.776;9.200;2023-03-01T08:35:15;2.40;99.90
9486;DHT22;4781;48.776;9.200;2023-03-01T08:37:43;2.60;99.90
9486;DHT22;4781;48.776;9.200;2023-03-01T08:40:16;2.60;99.90
9486;DHT22;4781;48.776;9.200;2023-03-01T08:42:45;2.70;99.90
9486;DHT22;4781;48.776;9.200;2023-03-01T08:45:15;2.80;99.90
9486;DHT22;4781;48.776;9.200;2023-03-01T08:47:45;3.00;99.90
9486;DHT22;4781;48.776;9.200;2023-03-01T08:50:13;3.10;99.90
9486;DHT22;4781;48.776;9.200;2023-03-01T08:52:41;3.10;99.90
9486;DHT22;4781;48.776;9.200;2023-03-01T08:55:10;3.20;99.90
9486;DHT22;4781;48.776;9.200;2023-03-01T08:57:38;3.20;99.90
9486;DHT22;4781;48.776;9.200;2023-03-01T09:00:07;3.40;99.90
9486;DHT22;4781;48.776;9.200;2023-03-01T09:02:37;3.40;99.90
9486;DHT22;4781;48.776;9.200;2023-03-01T09:05:06;3.60;99.90
9486;DHT22;4781;48.776;9.200;2023-03-01T09:07:35;3.60;99.90
9486;DHT22;4781;48.776;9.200;2023-03-01T09:10:03;3.80;99.90
9486;DHT22;4781;48.776;9.200;2023-03-01T09:12:32;3.90;99.90
9486;DHT22;4781;48.776;9.200;2023-03-01T09:15:01;4.00;99.90
9486;DHT22;4781;48.776;9.200;2023-03-01T09:17:29;4.10;99.90
9486;DHT22;4781;48.776;9.200;2023-03-01T09:19:57;4.20;99.90
9486;DHT22;4781;48.776;9.200;2023-03-01T09:22:26;4.30;99.90
9486;DHT22;4781;48.776;9.200;2023-03-01T09:24:54;4.50;99.90
9486;DHT22;4781;48.776;9.200;2023-03-01T09:27:24;4.60;99.90
9486;DHT22;4781;48.776;9.200;2023-03-01T09:29:52;4.60;99.90
9486;DHT22;4781;48.776;9.200;2023-03-01T09:32:22;4.80;99.90
9486;DHT22;4781;48.776;9.200;2023-03-01T09:34:52;4.80;99.90
9486;DHT22;4781;48.776;9.200;2023-03-01T09:37:34;5.00;99.90
9486;DHT22;4781;48.776;9.200;2023-03-01T09:40:06;5.10;99.90
9486;DHT22;4781;48.776;9.200;2023-03-01T09:42:44;5.30;99.90
9486;DHT22;4781;48.776;9.200;2023-03-01T09:45:11;5.50;99.90
9486;DHT22;4781;48.776;9.200;2023-03-01T09:47:43;5.60;99.90
9486;DHT22;4781;48.776;9.200;2023-03-01T09:50:16;5.80;99.90
9486;DHT22;4781;48.776;9.200;2023-03-01T09:55:37;5.90;99.90
9486;DHT22;4781;48.776;9.200;2023-03-01T09:58:27;5.90;99.80
9486;DHT22;4781;48.776;9.200;2023-03-01T10:00:59;6.00;99.90
9486;DHT22;4781;48.776;9.200;2023-03-01T10:03:44;6.20;99.10
9486;DHT22;4781;48.776;9.200;2023-03-01T10:09:13;6.30;99.50
9486;DHT22;4781;48.776;9.200;2023-03-01T10:11:47;6.40;98.60
9486;DHT22;4781;48.776;9.200;2023-03-01T10:14:32;6.50;98.90
9486;DHT22;4781;48.776;9.200;2023-03-01T10:17:26;6.50;98.00
9486;DHT22;4781;48.776;9.200;2023-03-01T10:22:52;6.70;98.40
9486;DHT22;4781;48.776;9.200;2023-03-01T10:31:27;7.00;96.90
9486;DHT22;4781;48.776;9.200;2023-03-01T10:33:42;7.10;96.60
9486;DHT22;4781;48.776;9.200;2023-03-01T10:36:11;7.20;97.20
9486;DHT22;4781;48.776;9.200;2023-03-01T10:38:48;7.30;96.60
9486;DHT22;4781;48.776;9.200;2023-03-01T10:42:01;7.40;96.50
9486;DHT22;4781;48.776;9.200;2023-03-01T10:44:45;7.60;96.50
9486;DHT22;4781;48.776;9.200;2023-03-01T10:47:18;7.70;96.00
9486;DHT22;4781;48.776;9.200;2023-03-01T10:50:02;7.70;95.30
9486;DHT22;4781;48.776;9.200;2023-03-01T11:00:52;8.30;95.40
9486;DHT22;4781;48.776;9.200;2023-03-01T11:03:29;8.20;94.30
9486;DHT22;4781;48.776;9.200;2023-03-01T11:06:00;8.50;94.00
9486;DHT22;4781;48.776;9.200;2023-03-01T11:14:13;9.20;92.80
9486;DHT22;4781;48.776;9.200;2023-03-01T11:16:44;9.50;93.60
9486;DHT22;4781;48.776;9.200;2023-03-01T11:19:16;9.80;93.40
9486;DHT22;4781;48.776;9.200;2023-03-01T11:22:17;10.00;91.80
9486;DHT22;4781;48.776;9.200;2023-03-01T11:24:42;9.70;90.70
9486;DHT22;4781;48.776;9.200;2023-03-01T11:27:25;9.90;92.40
9486;DHT22;4781;48.776;9.200;2023-03-01T11:30:09;10.20;91.80
9486;DHT22;4781;48.776;9.200;2023-03-01T11:33:07;10.30;90.40
9486;DHT22;4781;48.776;9.200;2023-03-01T11:35:45;10.30;91.10
9486;DHT22;4781;48.776;9.200;2023-03-01T11:38:22;10.30;90.10
9486;DHT22;4781;48.776;9.200;2023-03-01T11:41:12;10.30;90.60
9486;DHT22;4781;48.776;9.200;2023-03-01T11:44:09;10.50;90.60
9486;DHT22;4781;48.776;9.200;2023-03-01T11:46:43;10.70;90.40
9486;DHT22;4781;48.776;9.200;2023-03-01T11:55:58;10.80;87.10
9486;DHT22;4781;48.776;9.200;2023-03-01T11:59:03;10.80;87.40
9486;DHT22;4781;48.776;9.200;2023-03-01T12:05:11;11.00;87.60
9486;DHT22;4781;48.776;9.200;2023-03-01T12:08:15;11.10;87.50
9486;DHT22;4781;48.776;9.200;2023-03-01T12:17:14;10.60;87.90
9486;DHT22;4781;48.776;9.200;2023-03-01T12:29:22;10.10;86.30
9486;DHT22;4781;48.776;9.200;2023-03-01T12:32:13;9.90;88.50
9486;DHT22;4781;48.776;9.200;2023-03-01T12:46:47;9.60;89.10
9486;DHT22;4781;48.776;9.200;2023-03-01T12:49:39;9.50;89.60
9486;DHT22;4781;48.776;9.200;2023-03-01T12:54:52;9.40;88.80
9486;DHT22;4781;48.776;9.200;2023-03-01T12:57:42;9.30;88.70
9486;DHT22;4781;48.776;9.200;2023-03-01T13:00:31;9.10;89.20
9486;DHT22;4781;48.776;9.200;2023-03-01T13:09:23;9.10;90.10
9486;DHT22;4781;48.776;9.200;2023-03-01T13:12:51;9.00;90.00
9486;DHT22;4781;48.776;9.200;2023-03-01T13:15:26;9.00;90.20
9486;DHT22;4781;48.776;9.200;2023-03-01T13:20:54;9.00;90.20
9486;DHT22;4781;48.776;9.200;2023-03-01T13:23:26;9.20;90.10
9486;DHT22;4781;48.776;9.200;2023-03-01T13:26:09;9.30;89.70
9486;DHT22;4781;48.776;9.200;2023-03-01T13:28:59;9.40;90.00
9486;DHT22;4781;48.776;9.200;2023-03-01T13:34:03;9.30;89.60
9486;DHT22;4781;48.776;9.200;2023-03-01T13:42:32;9.40;89.60
9486;DHT22;4781;48.776;9.200;2023-03-01T13:44:39;9.40;89.70
9486;DHT22;4781;48.776;9.200;2023-03-01T13:49:43;9.40;89.60
9486;DHT22;4781;48.776;9.200;2023-03-01T13:52:52;9.30;89.00
9486;DHT22;4781;48.776;9.200;2023-03-01T13:55:43;9.30;89.80
9486;DHT22;4781;48.776;9.200;2023-03-01T14:00:57;9.40;89.80
9486;DHT22;4781;48.776;9.200;2023-03-01T14:03:28;9.50;89.70
9486;DHT22;4781;48.776;9.200;2023-03-01T14:06:15;9.50;90.00
9486;DHT22;4781;48.776;9.200;2023-03-01T14:08:46;9.40;89.60
9486;DHT22;4781;48.776;9.200;2023-03-01T14:15:17;9.30;90.30
9486;DHT22;4781;48.776;9.200;2023-03-01T14:20:57;9.10;90.40
9486;DHT22;4781;48.776;9.200;2023-03-01T14:23:27;8.90;90.20
9486;DHT22;4781;48.776;9.200;2023-03-01T14:25:57;8.80;90.20
9486;DHT22;4781;48.776;9.200;2023-03-01T14:28:28;8.60;90.40
9486;DHT22;4781;48.776;9.200;2023-03-01T14:31:01;8.50;90.90
9486;DHT22;4781;48.776;9.200;2023-03-01T14:33:33;8.50;90.80
9486;DHT22;4781;48.776;9.200;2023-03-01T14:36:09;8.40;90.80
9486;DHT22;4781;48.776;9.200;2023-03-01T14:38:46;8.50;91.20
9486;DHT22;4781;48.776;9.200;2023-03-01T14:41:20;8.40;91.00
9486;DHT22;4781;48.776;9.200;2023-03-01T14:43:53;8.40;91.10
9486;DHT22;4781;48.776;9.200;2023-03-01T14:46:37;8.40;90.90
9486;DHT22;4781;48.776;9.200;2023-03-01T14:49:12;8.50;91.20
9486;DHT22;4781;48.776;9.200;2023-03-01T14:51:55;8.60;91.10
9486;DHT22;4781;48.776;9.200;2023-03-01T14:54:27;8.60;91.10
9486;DHT22;4781;48.776;9.200;2023-03-01T14:57:18;8.70;91.10
9486;DHT22;4781;48.776;9.200;2023-03-01T15:02:40;8.70;91.10
9486;DHT22;4781;48.776;9.200;2023-03-01T15:05:09;8.70;90.80
9486;DHT22;4781;48.776;9.200;2023-03-01T15:07:41;8.70;90.90
9486;DHT22;4781;48.776;9.200;2023-03-01T15:10:22;8.70;91.00
9486;DHT22;4781;48.776;9.200;2023-03-01T15:12:52;8.80;91.10
9486;DHT22;4781;48.776;9.200;2023-03-01T15:18:01;8.80;90.90
9486;DHT22;4781;48.776;9.200;2023-03-01T15:20:34;8.80;90.90
9486;DHT22;4781;48.776;9.200;2023-03-01T15:23:03;8.80;90.90
9486;DHT22;4781;48.776;9.200;2023-03-01T15:25:33;8.80;91.00
9486;DHT22;4781;48.776;9.200;2023-03-01T15:28:02;8.90;91.20
9486;DHT22;4781;48.776;9.200;2023-03-01T15:30:33;8.90;91.00
9486;DHT22;4781;48.776;9.200;2023-03-01T15:38:58;8.90;91.00
9486;DHT22;4781;48.776;9.200;2023-03-01T15:41:32;8.70;90.50
9486;DHT22;4781;48.776;9.200;2023-03-01T15:44:25;8.60;90.40
9486;DHT22;4781;48.776;9.200;2023-03-01T15:46:48;8.50;90.40
9486;DHT22;4781;48.776;9.200;2023-03-01T15:49:38;8.50;90.70
9486;DHT22;4781;48.776;9.200;2023-03-01T15:52:22;8.30;90.60
9486;DHT22;4781;48.776;9.200;2023-03-01T15:54:48;8.30;90.60
9486;DHT22;4781;48.776;9.200;2023-03-01T15:57:17;8.20;90.50
9486;DHT22;4781;48.776;9.200;2023-03-01T15:59:46;7.90;90.40
9486;DHT22;4781;48.776;9.200;2023-03-01T16:02:16;8.10;90.60
9486;DHT22;4781;48.776;9.200;2023-03-01T16:04:46;7.80;90.70
9486;DHT22;4781;48.776;9.200;2023-03-01T16:07:16;7.70;90.90
9486;DHT22;4781;48.776;9.200;2023-03-01T16:09:45;7.60;90.60
9486;DHT22;4781;48.776;9.200;2023-03-01T16:12:14;7.50;90.60
9486;DHT22;4781;48.776;9.200;2023-03-01T16:14:43;7.50;90.70
9486;DHT22;4781;48.776;9.200;2023-03-01T16:17:11;7.40;90.80
9486;DHT22;4781;48.776;9.200;2023-03-01T16:19:40;7.30;90.70
9486;DHT22;4781;48.776;9.200;2023-03-01T16:22:12;7.20;90.70
9486;DHT22;4781;48.776;9.200;2023-03-01T16:24:40;7.10;90.80
9486;DHT22;4781;48.776;9.200;2023-03-01T16:27:09;7.10;90.90
9486;DHT22;4781;48.776;9.200;2023-03-01T16:29:37;7.10;90.90
9486;DHT22;4781;48.776;9.200;2023-03-01T16:32:06;7.00;91.00
9486;DHT22;4781;48.776;9.200;2023-03-01T16:34:34;7.00;91.10
9486;DHT22;4781;48.776;9.200;2023-03-01T16:37:02;6.90;91.10
9486;DHT22;4781;48.776;9.200;2023-03-01T16:39:31;7.00;91.20
9486;DHT22;4781;48.776;9.200;2023-03-01T16:42:00;6.90;91.30
9486;DHT22;4781;48.776;9.200;2023-03-01T16:44:28;6.80;91.40
9486;DHT22;4781;48.776;9.200;2023-03-01T16:46:57;6.80;91.50
9486;DHT22;4781;48.776;9.200;2023-03-01T16:49:25;6.80;91.50
9486;DHT22;4781;48.776;9.200;2023-03-01T16:51:54;6.70;91.50
9486;DHT22;4781;48.776;9.200;2023-03-01T16:54:22;6.70;91.60
9486;DHT22;4781;48.776;9.200;2023-03-01T16:56:51;6.70;91.70
9486;DHT22;4781;48.776;9.200;2023-03-01T16:59:19;6.60;92.00
9486;DHT22;4781;48.776;9.200;2023-03-01T17:01:50;6.60;91.70
9486;DHT22;4781;48.776;9.200;2023-03-01T17:04:19;6.50;91.80
9486;DHT22;4781;48.776;9.200;2023-03-01T17:06:47;6.50;92.00
9486;DHT22;4781;48.776;9.200;2023-03-01T17:09:16;6.50;92.00
9486;DHT22;4781;48.776;9.200;2023-03-01T17:11:46;6.40;92.10
9486;DHT22;4781;48.776;9.200;2023-03-01T17:14:15;6.40;92.10
9486;DHT22;4781;48.776;9.200;2023-03-01T17:16:44;6.40;92.20
9486;DHT22;4781;48.776;9.200;2023-03-01T17:19:12;6.30;92.30
9486;DHT22;4781;48.776;9.200;2023-03-01T17:21:43;6.30;92.50
9486;DHT22;4781;48.776;9.200;2023-03-01T17:24:12;6.30;92.50
9486;DHT22;4781;48.776;9.200;2023-03-01T17:26:41;6.20;92.90
9486;DHT22;4781;48.776;9.200;2023-03-01T17:29:09;6.20;92.80
9486;DHT22;4781;48.776;9.200;2023-03-01T17:31:39;6.10;92.90
9486;DHT22;4781;48.776;9.200;2023-03-01T17:34:07;6.10;93.10
9486;DHT22;4781;48.776;9.200;2023-03-01T17:36:36;6.00;93.00
9486;DHT22;4781;48.776;9.200;2023-03-01T17:39:06;6.00;93.20
9486;DHT22;4781;48.776;9.200;2023-03-01T17:41:34;5.90;93.20
9486;DHT22;4781;48.776;9.200;2023-03-01T17:44:03;5.90;93.30
9486;DHT22;4781;48.776;9.200;2023-03-01T17:46:31;5.80;93.40
9486;DHT22;4781;48.776;9.200;2023-03-01T17:49:00;5.80;93.50
9486;DHT22;4781;48.776;9.200;2023-03-01T17:51:28;5.70;93.30
9486;DHT22;4781;48.776;9.200;2023-03-01T17:53:56;5.60;93.60
9486;DHT22;4781;48.776;9.200;2023-03-01T17:56:25;5.60;93.80
9486;DHT22;4781;48.776;9.200;2023-03-01T17:58:53;5.60;93.80
9486;DHT22;4781;48.776;9.200;2023-03-01T18:01:22;5.50;93.90
9486;DHT22;4781;48.776;9.200;2023-03-01T18:03:51;5.50;94.10
9486;DHT22;4781;48.776;9.200;2023-03-01T18:06:22;5.40;94.40
9486;DHT22;4781;48.776;9.200;2023-03-01T18:08:52;5.30;94.50
9486;DHT22;4781;48.776;9.200;2023-03-01T18:11:23;5.30;94.70
9486;DHT22;4781;48.776;9.200;2023-03-01T18:13:53;5.20;95.00
9486;DHT22;4781;48.776;9.200;2023-03-01T18:16:22;5.10;94.90
9486;DHT22;4781;48.776;9.200;2023-03-01T18:18:54;5.10;95.00
9486;DHT22;4781;48.776;9.200;2023-03-01T18:21:24;5.00;94.80
9486;DHT22;4781;48.776;9.200;2023-03-01T18:23:53;4.90;95.00
9486;DHT22;4781;48.776;9.200;2023-03-01T18:26:22;4.90;95.20
9486;DHT22;4781;48.776;9.200;2023-03-01T18:28:51;4.90;94.70
9486;DHT22;4781;48.776;9.200;2023-03-01T18:31:21;4.80;95.20
9486;DHT22;4781;48.776;9.200;2023-03-01T18:33:52;4.80;94.90
9486;DHT22;4781;48.776;9.200;2023-03-01T18:36:27;4.70;95.40
9486;DHT22;4781;48.776;9.200;2023-03-01T18:38:57;4.70;95.80
9486;DHT22;4781;48.776;9.200;2023-03-01T18:41:27;4.60;96.10
9486;DHT22;4781;48.776;9.200;2023-03-01T18:43:55;4.50;95.90
9486;DHT22;4781;48.776;9.200;2023-03-01T18:46:24;4.50;96.40
9486;DHT22;4781;48.776;9.200;2023-03-01T18:48:53;4.50;96.50
9486;DHT22;4781;48.776;9.200;2023-03-01T18:51:26;4.40;96.00